11:03
Airports
History
Links
Donate
Help keep this website running!
PayPal
Bitcoin
Information on this page is community maintained and may be outdated or inaccurate and is intended for reference only or PC simulator navigating!
Always use approved charts for navigating.
LFPI
Paris Issy les Moulineaux
Paris Issy les Moulineaux (LFPI)
Paris, Île-de-France, France (75015)
(C)
Lat/Lng:48° 49' 59.44" N / 2° 16' 22.28" E
48.833179 / 2.272856
Elevation:105'ft 32mMSL
ID / ICAO:LFPI
Runways:1
Longest:(24-06) 354.1m 1,162ft Grass
Controlled:Yes
Distance To
Airport ID:
Nearby VORs <50NM
Nearby NDBs
Nearby WeatherUpdated 04-30-17 10:30 GMT
Nearby weather at LFPV, Velizy located 5.2 nautical miles from LFPI
Altimeter: 29.62
Visibility: 6.2 statute miles
Wind: 14 knots (150°)
Temp: 17°c 63°f
Humidity: %

METAR: LFPV 301030Z AUTO 15014KT 110V170 CAVOK 17/00 Q1003 NOSIG

(Powered by phpweather)
Runway 24 / 06
Dimensions:354.1 x 50m 1162' x 164'ft
Surface:Grass
Edge Lights:Medium intensity
Runway 24 [A]Runway 06 [B]
Heading:240°TH 060°TH
Lat:
Lng:
48° 50' 2.19"N
2° 16' 29.81"E
48° 49' 56.7"N
2° 16' 14.75"E
Google Map
Nearby Airports
(C) Velizy 5.2 NM
LFPV (WX) SW 218°
(C) Paris Orly 8.3 NM
LFPO (WX) SSE 151°
(C) Toussus-le-Noble 9.4 NM
LFPN (WX) SW 233°
4 Saint Cyr l Ecole 9.5 NM
LFPZ W 261°
(C) Paris Le Bourget 11.8 NM
LFPB (WX) NE 40°
(C) Chavenay Villepreux 13.3 NM
LFPX W 272°
4 Enghien Moisselles 15.2 NM
LFFE NNE 14°
VFR Chart
Flight Planning at SkyVector.com